createdAt,value
2022-12-28T00:01:18.529Z,100.00
2022-12-28T00:03:45.395Z,100.00
2022-12-28T00:06:13.039Z,100.00
2022-12-28T00:08:40.576Z,100.00
2022-12-28T00:11:18.641Z,100.00
2022-12-28T00:13:50.711Z,100.00
2022-12-28T00:16:30.901Z,100.00
2022-12-28T00:18:59.633Z,100.00
2022-12-28T00:21:26.564Z,100.00
2022-12-28T00:23:57.537Z,100.00
2022-12-28T00:26:25.567Z,100.00
2022-12-28T00:28:53.510Z,100.00
2022-12-28T00:31:22.014Z,100.00
2022-12-28T00:33:48.421Z,100.00
2022-12-28T00:36:15.473Z,100.00
2022-12-28T00:38:42.562Z,100.00
2022-12-28T00:41:09.650Z,100.00
2022-12-28T00:43:36.424Z,100.00
2022-12-28T00:46:03.211Z,100.00
2022-12-28T00:48:29.634Z,100.00
2022-12-28T00:51:08.904Z,100.00
2022-12-28T00:53:35.417Z,100.00
2022-12-28T00:56:11.891Z,100.00
2022-12-28T00:58:38.651Z,100.00
2022-12-28T01:01:11.293Z,100.00
2022-12-28T01:03:37.814Z,100.00
2022-12-28T01:06:08.965Z,100.00
2022-12-28T01:08:36.787Z,100.00
2022-12-28T01:11:10.781Z,100.00
2022-12-28T01:13:38.059Z,100.00
2022-12-28T01:16:16.036Z,100.00
2022-12-28T01:18:43.493Z,100.00
2022-12-28T01:21:15.759Z,100.00
2022-12-28T01:23:42.827Z,100.00
2022-12-28T01:26:09.895Z,100.00
2022-12-28T01:28:36.912Z,100.00
2022-12-28T01:31:12.509Z,100.00
2022-12-28T01:33:39.719Z,100.00
2022-12-28T01:36:07.781Z,100.00
2022-12-28T01:38:34.955Z,100.00
2022-12-28T01:41:01.446Z,100.00
2022-12-28T01:43:42.050Z,100.00
2022-12-28T01:46:12.279Z,100.00
2022-12-28T01:48:49.535Z,100.00
2022-12-28T01:51:18.282Z,100.00
2022-12-28T01:53:45.586Z,100.00
2022-12-28T01:56:12.088Z,100.00
2022-12-28T01:58:40.009Z,100.00
2022-12-28T02:01:06.688Z,100.00
2022-12-28T02:03:35.187Z,100.00
2022-12-28T02:06:06.298Z,100.00
2022-12-28T02:08:41.781Z,100.00
2022-12-28T02:11:12.590Z,100.00
2022-12-28T02:13:42.089Z,100.00
2022-12-28T02:16:13.064Z,100.00
2022-12-28T02:18:42.146Z,100.00
2022-12-28T02:21:24.601Z,100.00
2022-12-28T02:23:54.035Z,100.00
2022-12-28T02:26:29.475Z,100.00
2022-12-28T02:29:32.803Z,100.00
2022-12-28T02:32:10.432Z,100.00
2022-12-28T02:34:57.183Z,100.00
2022-12-28T02:37:30.524Z,100.00
2022-12-28T02:40:05.543Z,100.00
2022-12-28T02:42:34.917Z,100.00
2022-12-28T02:45:19.962Z,100.00
2022-12-28T02:48:06.322Z,100.00
2022-12-28T02:50:54.232Z,100.00
2022-12-28T02:54:39.642Z,100.00
2022-12-28T02:57:40.082Z,100.00
2022-12-28T03:00:15.405Z,100.00
2022-12-28T03:03:09.963Z,100.00
2022-12-28T03:06:07.235Z,100.00
2022-12-28T03:09:07.174Z,100.00
2022-12-28T03:11:44.118Z,100.00
2022-12-28T03:14:16.064Z,100.00
2022-12-28T03:17:04.147Z,100.00
2022-12-28T03:19:55.571Z,100.00
2022-12-28T03:22:42.405Z,100.00
2022-12-28T03:25:32.597Z,100.00
2022-12-28T03:28:20.963Z,100.00
2022-12-28T03:31:07.343Z,100.00
2022-12-28T03:33:41.622Z,100.00
2022-12-28T03:36:30.519Z,100.00
2022-12-28T03:39:35.913Z,100.00
2022-12-28T03:42:57.603Z,100.00
2022-12-28T03:46:02.823Z,100.00
2022-12-28T03:48:37.323Z,100.00
2022-12-28T03:51:04.386Z,100.00
2022-12-28T03:53:39.277Z,100.00
2022-12-28T03:56:17.594Z,100.00
2022-12-28T03:58:44.002Z,100.00
2022-12-28T04:01:11.046Z,100.00
2022-12-28T04:03:38.080Z,100.00
2022-12-28T04:06:05.207Z,100.00
2022-12-28T04:08:33.645Z,100.00
2022-12-28T04:11:01.412Z,100.00
2022-12-28T04:13:31.601Z,100.00
2022-12-28T04:15:59.420Z,100.00
2022-12-28T04:18:26.033Z,100.00
2022-12-28T04:20:52.946Z,100.00
2022-12-28T04:23:19.661Z,100.00
2022-12-28T04:26:00.537Z,100.00
2022-12-28T04:28:27.143Z,100.00
2022-12-28T04:30:53.706Z,100.00
2022-12-28T04:33:20.198Z,100.00
2022-12-28T04:35:46.796Z,100.00
2022-12-28T04:38:13.447Z,100.00
2022-12-28T04:40:39.821Z,100.00
2022-12-28T04:43:06.248Z,100.00
2022-12-28T04:45:32.607Z,100.00
2022-12-28T04:47:59.292Z,100.00
2022-12-28T04:50:26.729Z,100.00
2022-12-28T04:52:53.215Z,100.00
2022-12-28T04:55:31.932Z,100.00
2022-12-28T04:58:00.605Z,100.00
2022-12-28T05:00:27.067Z,100.00
2022-12-28T05:02:53.559Z,100.00
2022-12-28T05:05:20.015Z,100.00
2022-12-28T05:07:46.429Z,100.00
2022-12-28T05:10:12.827Z,100.00
2022-12-28T05:12:39.188Z,100.00
2022-12-28T05:15:06.448Z,100.00
2022-12-28T05:17:32.889Z,100.00
2022-12-28T05:19:59.405Z,100.00
2022-12-28T05:22:25.893Z,100.00
2022-12-28T05:24:52.327Z,100.00
2022-12-28T05:27:18.745Z,100.00
2022-12-28T05:29:45.204Z,100.00
2022-12-28T05:32:11.636Z,100.00
2022-12-28T05:34:39.827Z,100.00
2022-12-28T05:37:06.238Z,100.00
2022-12-28T05:39:32.620Z,100.00
2022-12-28T05:42:00.721Z,100.00
2022-12-28T05:44:27.388Z,100.00
2022-12-28T05:46:53.806Z,100.00
2022-12-28T05:49:20.356Z,100.00
2022-12-28T05:51:48.932Z,100.00
2022-12-28T05:54:15.303Z,100.00
2022-12-28T05:56:41.661Z,100.00
2022-12-28T05:59:09.144Z,100.00
2022-12-28T06:01:41.255Z,100.00
2022-12-28T06:04:15.034Z,100.00
2022-12-28T06:06:41.639Z,100.00
2022-12-28T06:09:08.050Z,100.00
2022-12-28T06:11:34.572Z,100.00
2022-12-28T06:14:03.565Z,100.00
2022-12-28T06:16:32.513Z,100.00
2022-12-28T06:18:59.371Z,100.00
2022-12-28T06:21:30.418Z,100.00
2022-12-28T06:23:59.034Z,100.00
2022-12-28T06:26:27.425Z,100.00
2022-12-28T06:28:53.917Z,100.00
2022-12-28T06:31:32.022Z,100.00
2022-12-28T06:34:00.247Z,100.00
2022-12-28T06:36:30.493Z,100.00
2022-12-28T06:38:58.740Z,100.00
2022-12-28T06:41:26.315Z,100.00
2022-12-28T06:43:53.319Z,100.00
2022-12-28T06:46:21.612Z,100.00
2022-12-28T06:48:48.240Z,100.00
2022-12-28T06:51:28.705Z,100.00
2022-12-28T06:53:55.380Z,100.00
2022-12-28T06:56:30.780Z,100.00
2022-12-28T06:59:02.840Z,100.00
2022-12-28T07:01:33.135Z,100.00
2022-12-28T07:04:01.127Z,100.00
2022-12-28T07:06:28.973Z,100.00
2022-12-28T07:09:04.674Z,100.00
2022-12-28T07:11:31.441Z,100.00
2022-12-28T07:13:58.090Z,100.00
2022-12-28T07:18:54.917Z,100.00
2022-12-28T07:21:24.083Z,100.00
2022-12-28T07:23:52.272Z,100.00
2022-12-28T07:26:21.487Z,100.00
2022-12-28T07:28:51.999Z,100.00
2022-12-28T07:31:21.103Z,100.00
2022-12-28T07:33:48.089Z,100.00
2022-12-28T07:36:16.832Z,100.00
2022-12-28T07:38:43.955Z,100.00
2022-12-28T07:41:16.325Z,100.00
2022-12-28T07:43:42.889Z,100.00
2022-12-28T07:46:14.643Z,100.00
2022-12-28T07:48:42.251Z,100.00
2022-12-28T07:51:18.127Z,100.00
2022-12-28T07:53:46.707Z,100.00
2022-12-28T07:56:13.752Z,100.00
2022-12-28T08:01:11.733Z,100.00
2022-12-28T08:03:40.693Z,100.00
2022-12-28T08:06:09.714Z,100.00
2022-12-28T08:08:37.883Z,100.00
2022-12-28T08:11:10.524Z,100.00
2022-12-28T08:13:39.006Z,100.00
2022-12-28T08:16:06.368Z,100.00
2022-12-28T08:18:33.835Z,100.00
2022-12-28T08:21:10.583Z,100.00
2022-12-28T08:23:37.093Z,100.00
2022-12-28T08:26:12.730Z,100.00
2022-12-28T08:28:40.121Z,100.00
2022-12-28T08:31:09.156Z,100.00
2022-12-28T08:33:36.250Z,100.00
2022-12-28T08:36:04.075Z,100.00
2022-12-28T08:38:30.954Z,100.00
2022-12-28T08:40:58.928Z,100.00
2022-12-28T08:43:27.172Z,100.00
2022-12-28T08:46:05.812Z,100.00
2022-12-28T08:48:33.638Z,100.00
2022-12-28T08:51:08.491Z,100.00
2022-12-28T08:53:36.042Z,100.00
2022-12-28T08:56:11.588Z,100.00
2022-12-28T08:58:42.068Z,100.00
2022-12-28T09:01:11.470Z,100.00
2022-12-28T09:03:39.268Z,100.00
2022-12-28T09:06:07.558Z,100.00
2022-12-28T09:08:34.227Z,100.00
2022-12-28T09:11:01.745Z,100.00
2022-12-28T09:13:28.805Z,100.00
2022-12-28T09:16:03.503Z,100.00
2022-12-28T09:18:30.665Z,100.00
2022-12-28T09:20:57.134Z,100.00
2022-12-28T09:23:23.738Z,100.00
2022-12-28T09:25:50.178Z,100.00
2022-12-28T09:28:16.638Z,100.00
2022-12-28T09:30:43.031Z,100.00
2022-12-28T09:33:27.874Z,100.00
2022-12-28T09:35:58.620Z,100.00
2022-12-28T09:38:25.294Z,100.00
2022-12-28T09:40:51.722Z,100.00
2022-12-28T09:43:19.227Z,100.00
2022-12-28T09:45:47.302Z,100.00
2022-12-28T09:48:18.835Z,100.00
2022-12-28T09:50:47.239Z,100.00
2022-12-28T09:53:26.753Z,100.00
2022-12-28T09:56:04.923Z,100.00
2022-12-28T09:58:33.874Z,100.00
2022-12-28T10:01:01.606Z,100.00
2022-12-28T10:03:36.223Z,100.00
2022-12-28T10:06:04.278Z,100.00
2022-12-28T10:08:31.332Z,100.00
2022-12-28T10:11:02.232Z,100.00
2022-12-28T10:13:59.391Z,100.00
2022-12-28T10:16:29.293Z,100.00
2022-12-28T10:18:55.863Z,100.00
2022-12-28T10:21:31.880Z,100.00
2022-12-28T10:26:47.142Z,100.00
2022-12-28T10:29:19.014Z,100.00
2022-12-28T10:31:57.529Z,100.00
2022-12-28T10:34:25.114Z,100.00
2022-12-28T10:36:54.328Z,100.00
2022-12-28T10:39:28.113Z,100.00
2022-12-28T10:41:56.115Z,100.00
2022-12-28T10:44:39.330Z,100.00
2022-12-28T10:47:18.102Z,100.00
2022-12-28T10:50:18.580Z,100.00
2022-12-28T10:52:38.225Z,100.00
2022-12-28T10:55:33.168Z,100.00
2022-12-28T10:58:31.764Z,100.00
2022-12-28T11:01:13.652Z,100.00
2022-12-28T11:04:07.901Z,100.00
2022-12-28T11:06:57.392Z,100.00
2022-12-28T11:09:35.259Z,100.00
2022-12-28T11:12:24.982Z,100.00
2022-12-28T11:14:52.414Z,100.00
2022-12-28T11:17:25.057Z,100.00
2022-12-28T11:20:01.206Z,100.00
2022-12-28T11:22:29.739Z,100.00
2022-12-28T11:25:01.525Z,100.00
2022-12-28T11:27:28.159Z,100.00
2022-12-28T11:29:56.022Z,100.00
2022-12-28T11:32:29.438Z,100.00
2022-12-28T11:34:57.633Z,100.00
2022-12-28T11:37:24.059Z,100.00
2022-12-28T11:39:53.046Z,99.36
2022-12-28T11:42:39.970Z,99.98
2022-12-28T11:45:14.966Z,99.48
2022-12-28T11:47:41.416Z,99.86
2022-12-28T11:50:33.620Z,98.80
2022-12-28T11:53:01.915Z,98.98
2022-12-28T11:55:51.034Z,99.20
2022-12-28T11:58:43.341Z,98.70
2022-12-28T12:01:10.948Z,98.64
2022-12-28T12:03:59.263Z,98.67
2022-12-28T12:06:44.233Z,98.81
2022-12-28T12:09:25.848Z,99.38
2022-12-28T12:12:00.709Z,99.32
2022-12-28T12:14:32.237Z,99.61
2022-12-28T12:17:43.901Z,99.51
2022-12-28T12:20:49.336Z,99.63
2022-12-28T12:23:28.462Z,99.61
2022-12-28T12:25:59.520Z,99.75
2022-12-28T12:28:41.914Z,99.74
2022-12-28T12:31:13.385Z,99.98
2022-12-28T12:33:44.560Z,99.63
2022-12-28T12:36:28.387Z,99.09
2022-12-28T12:39:23.590Z,99.58
2022-12-28T12:42:25.227Z,99.89
2022-12-28T12:45:00.178Z,99.60
2022-12-28T12:47:32.300Z,99.50
2022-12-28T12:50:24.007Z,98.98
2022-12-28T12:53:23.789Z,99.72
2022-12-28T12:56:12.536Z,99.32
2022-12-28T12:59:04.478Z,98.97
2022-12-28T13:01:45.442Z,98.65
2022-12-28T13:04:20.479Z,98.90
2022-12-28T13:06:47.199Z,99.15
2022-12-28T13:09:17.224Z,98.87
2022-12-28T13:11:43.945Z,98.72
2022-12-28T13:14:21.229Z,98.17
2022-12-28T13:16:50.217Z,97.99
2022-12-28T13:19:21.097Z,98.36
2022-12-28T13:21:49.172Z,98.74
2022-12-28T13:24:20.062Z,99.50
2022-12-28T13:26:46.535Z,98.92
2022-12-28T13:29:19.063Z,98.97
2022-12-28T13:31:49.673Z,98.70
2022-12-28T13:34:23.507Z,98.86
2022-12-28T13:36:54.240Z,98.98
2022-12-28T13:39:21.456Z,98.62
2022-12-28T13:41:51.230Z,98.97
2022-12-28T13:44:38.903Z,98.54
2022-12-28T13:47:26.095Z,98.68
2022-12-28T13:50:03.661Z,98.68
2022-12-28T13:52:45.337Z,98.50
2022-12-28T13:55:16.518Z,98.33
2022-12-28T13:57:51.267Z,98.44
2022-12-28T14:00:22.592Z,98.87
2022-12-28T14:02:52.142Z,98.71
2022-12-28T14:05:21.529Z,98.82
2022-12-28T14:07:50.436Z,98.88
2022-12-28T14:10:18.423Z,98.79
2022-12-28T14:12:46.278Z,99.36
2022-12-28T14:15:13.960Z,98.50
2022-12-28T14:17:41.491Z,98.96
2022-12-28T14:20:09.693Z,99.00
2022-12-28T14:22:38.384Z,98.79
2022-12-28T14:25:09.705Z,98.20
2022-12-28T14:27:40.783Z,99.05
2022-12-28T14:30:20.840Z,99.10
2022-12-28T14:32:47.664Z,98.91
2022-12-28T14:35:20.561Z,98.53
2022-12-28T14:37:52.650Z,98.62
2022-12-28T14:40:26.401Z,99.14
2022-12-28T14:42:54.401Z,98.47
2022-12-28T14:46:06.692Z,98.46
2022-12-28T14:48:25.936Z,98.88
2022-12-28T14:51:00.244Z,98.32
2022-12-28T14:53:27.831Z,99.05
2022-12-28T14:56:23.562Z,98.60
2022-12-28T14:58:58.102Z,99.56
2022-12-28T15:01:25.413Z,98.90
2022-12-28T15:04:01.147Z,98.48
2022-12-28T15:06:29.799Z,98.86
2022-12-28T15:08:58.836Z,99.44
2022-12-28T15:11:27.628Z,98.74
2022-12-28T15:13:54.127Z,98.47
2022-12-28T15:16:25.477Z,98.18
2022-12-28T15:18:52.846Z,98.54
2022-12-28T15:21:22.316Z,98.77
2022-12-28T15:23:52.954Z,98.80
2022-12-28T15:26:20.480Z,98.48
2022-12-28T15:28:47.123Z,98.77
2022-12-28T15:31:16.916Z,98.30
2022-12-28T15:33:44.331Z,98.34
2022-12-28T15:36:17.396Z,97.11
2022-12-28T15:38:45.860Z,97.19
2022-12-28T15:41:30.632Z,97.35
2022-12-28T15:43:57.088Z,96.49
2022-12-28T15:46:23.592Z,96.64
2022-12-28T15:48:49.997Z,96.91
2022-12-28T15:51:17.105Z,96.01
2022-12-28T15:53:43.804Z,95.49
2022-12-28T15:56:27.768Z,96.05
2022-12-28T15:58:56.402Z,96.19
2022-12-28T16:01:24.592Z,94.97
2022-12-28T16:03:57.150Z,95.39
2022-12-28T16:06:26.234Z,95.52
2022-12-28T16:08:54.216Z,94.85
2022-12-28T16:11:21.323Z,94.65
2022-12-28T16:13:59.307Z,94.81
2022-12-28T16:16:27.930Z,94.43
2022-12-28T16:18:57.369Z,94.05
2022-12-28T16:21:27.116Z,94.71
2022-12-28T16:23:53.564Z,94.44
2022-12-28T16:26:21.396Z,94.30
2022-12-28T16:28:48.141Z,94.47
2022-12-28T16:31:31.152Z,94.33
2022-12-28T16:34:03.427Z,94.50
2022-12-28T16:36:30.610Z,94.38
2022-12-28T16:38:57.690Z,94.16
2022-12-28T16:41:24.723Z,94.38
2022-12-28T16:43:51.837Z,94.21
2022-12-28T16:46:18.887Z,93.57
2022-12-28T16:48:45.408Z,93.21
2022-12-28T16:51:12.486Z,93.93
2022-12-28T16:53:39.181Z,94.29
2022-12-28T16:56:06.358Z,93.88
2022-12-28T16:58:33.287Z,93.73
2022-12-28T17:01:08.356Z,93.95
2022-12-28T17:03:36.210Z,93.30
2022-12-28T17:06:02.744Z,93.22
2022-12-28T17:08:29.211Z,93.04
2022-12-28T17:10:55.711Z,93.67
2022-12-28T17:13:22.359Z,92.80
2022-12-28T17:15:48.845Z,92.66
2022-12-28T17:18:15.314Z,93.34
2022-12-28T17:20:41.858Z,93.40
2022-12-28T17:23:08.497Z,93.35
2022-12-28T17:25:35.854Z,93.41
2022-12-28T17:28:02.820Z,93.29
2022-12-28T17:30:29.417Z,93.54
2022-12-28T17:32:55.994Z,93.72
2022-12-28T17:35:22.556Z,94.15
2022-12-28T17:37:49.027Z,94.26
2022-12-28T17:40:15.433Z,93.72
2022-12-28T17:42:41.859Z,93.39
2022-12-28T17:45:11.765Z,93.87
2022-12-28T17:47:38.441Z,94.68
2022-12-28T17:50:06.326Z,94.29
2022-12-28T17:52:32.769Z,94.49
2022-12-28T17:54:59.138Z,94.29
2022-12-28T17:57:25.625Z,94.60
2022-12-28T17:59:52.035Z,94.68
2022-12-28T18:02:18.669Z,94.13
2022-12-28T18:04:45.242Z,94.62
2022-12-28T18:07:11.684Z,94.64
2022-12-28T18:09:38.087Z,94.42
2022-12-28T18:12:04.814Z,94.19
2022-12-28T18:14:31.255Z,94.70
2022-12-28T18:16:57.783Z,93.72
2022-12-28T18:19:24.370Z,94.06
2022-12-28T18:21:50.829Z,95.01
2022-12-28T18:24:20.637Z,94.13
2022-12-28T18:26:48.196Z,94.24
2022-12-28T18:29:14.862Z,94.27
2022-12-28T18:31:41.444Z,94.47
2022-12-28T18:34:07.937Z,94.18
2022-12-28T18:36:34.317Z,94.29
2022-12-28T18:39:02.678Z,94.58
2022-12-28T18:41:33.946Z,94.53
2022-12-28T18:44:02.820Z,94.82
2022-12-28T18:46:29.640Z,94.37
2022-12-28T18:48:56.575Z,94.73
2022-12-28T18:51:23.219Z,94.78
2022-12-28T18:53:50.731Z,95.55
2022-12-28T18:56:21.388Z,95.34
2022-12-28T18:58:52.854Z,95.23
2022-12-28T19:04:11.346Z,95.73
2022-12-28T19:06:38.464Z,95.17
2022-12-28T19:09:06.313Z,94.95
2022-12-28T19:11:33.399Z,95.56
2022-12-28T19:14:11.469Z,94.99
2022-12-28T19:16:38.059Z,95.22
2022-12-28T19:19:04.516Z,95.82
2022-12-28T19:21:41.512Z,95.51
2022-12-28T19:24:14.478Z,95.17
2022-12-28T19:26:41.463Z,95.54
2022-12-28T19:29:08.382Z,95.53
2022-12-28T19:31:34.848Z,95.45
2022-12-28T19:34:01.383Z,95.64
2022-12-28T19:36:27.847Z,95.31
2022-12-28T19:38:55.216Z,96.00
2022-12-28T19:41:23.522Z,96.47
2022-12-28T19:43:50.321Z,96.46
2022-12-28T19:46:19.880Z,96.66
2022-12-28T19:48:46.587Z,96.56
2022-12-28T19:51:14.375Z,96.72
2022-12-28T19:53:41.161Z,96.30
2022-12-28T19:56:16.855Z,96.73
2022-12-28T19:58:44.663Z,97.25
2022-12-28T20:01:14.474Z,97.27
2022-12-28T20:03:41.370Z,97.41
2022-12-28T20:06:14.470Z,97.76
2022-12-28T20:08:45.501Z,98.28
2022-12-28T20:11:12.026Z,98.28
2022-12-28T20:13:38.488Z,98.61
2022-12-28T20:16:05.430Z,98.30
2022-12-28T20:18:32.051Z,99.21
2022-12-28T20:21:19.069Z,100.00
2022-12-28T20:23:47.970Z,100.00
2022-12-28T20:26:14.671Z,100.00
2022-12-28T20:28:41.070Z,100.00
2022-12-28T20:31:10.737Z,100.00
2022-12-28T20:33:37.637Z,100.00
2022-12-28T20:36:25.388Z,100.00
2022-12-28T20:38:53.989Z,100.00
2022-12-28T20:41:42.180Z,100.00
2022-12-28T20:44:12.124Z,100.00
2022-12-28T20:46:39.049Z,100.00
2022-12-28T20:49:06.057Z,100.00
2022-12-28T20:51:33.598Z,100.00
2022-12-28T20:54:00.125Z,100.00
2022-12-28T20:56:26.503Z,100.00
2022-12-28T20:58:53.379Z,100.00
2022-12-28T21:01:20.764Z,100.00
2022-12-28T21:03:47.413Z,100.00
2022-12-28T21:06:14.151Z,100.00
2022-12-28T21:08:40.666Z,100.00
2022-12-28T21:11:07.190Z,100.00
2022-12-28T21:13:33.706Z,100.00
2022-12-28T21:16:04.207Z,100.00
2022-12-28T21:18:31.103Z,100.00
2022-12-28T21:20:59.868Z,100.00
2022-12-28T21:23:27.075Z,100.00
2022-12-28T21:26:00.102Z,100.00
2022-12-28T21:28:26.978Z,100.00
2022-12-28T21:30:55.179Z,100.00
2022-12-28T21:33:22.161Z,100.00
2022-12-28T21:36:01.779Z,100.00
2022-12-28T21:38:29.113Z,100.00
2022-12-28T21:41:06.939Z,100.00
2022-12-28T21:43:33.686Z,100.00
2022-12-28T21:46:06.080Z,100.00
2022-12-28T21:48:33.942Z,100.00
2022-12-28T21:51:28.629Z,100.00
2022-12-28T21:53:55.667Z,100.00
2022-12-28T21:56:22.237Z,100.00
2022-12-28T21:58:49.905Z,100.00
2022-12-28T22:01:35.667Z,100.00
2022-12-28T22:04:20.899Z,100.00
2022-12-28T22:06:47.390Z,100.00
2022-12-28T22:09:32.472Z,100.00
2022-12-28T22:12:17.311Z,100.00
2022-12-28T22:14:43.650Z,100.00
2022-12-28T22:17:14.192Z,100.00
2022-12-28T22:19:41.131Z,100.00
2022-12-28T22:22:07.562Z,100.00
2022-12-28T22:24:33.983Z,100.00
2022-12-28T22:27:00.382Z,100.00
2022-12-28T22:29:26.890Z,100.00
2022-12-28T22:31:53.302Z,100.00
2022-12-28T22:34:19.801Z,100.00
2022-12-28T22:36:46.172Z,100.00
2022-12-28T22:39:12.575Z,100.00
2022-12-28T22:41:39.046Z,100.00
2022-12-28T22:44:05.502Z,100.00
2022-12-28T22:46:31.997Z,100.00
2022-12-28T22:48:58.385Z,100.00
2022-12-28T22:51:24.734Z,100.00
2022-12-28T22:53:51.085Z,100.00
2022-12-28T22:56:20.731Z,100.00
2022-12-28T22:58:47.913Z,100.00
2022-12-28T23:01:17.270Z,100.00
2022-12-28T23:03:45.875Z,100.00
2022-12-28T23:06:14.843Z,100.00
2022-12-28T23:08:41.395Z,100.00
2022-12-28T23:11:30.463Z,100.00
2022-12-28T23:14:19.900Z,100.00
2022-12-28T23:16:47.084Z,100.00
2022-12-28T23:19:32.354Z,100.00
2022-12-28T23:22:17.409Z,100.00
2022-12-28T23:25:02.731Z,100.00
2022-12-28T23:27:36.972Z,100.00
2022-12-28T23:30:05.300Z,100.00
2022-12-28T23:32:31.688Z,100.00
2022-12-28T23:34:58.102Z,100.00
2022-12-28T23:37:24.527Z,100.00
2022-12-28T23:39:51.239Z,100.00
2022-12-28T23:42:17.625Z,100.00
2022-12-28T23:44:48.406Z,100.00
2022-12-28T23:47:19.090Z,100.00
2022-12-28T23:49:46.026Z,100.00
2022-12-28T23:52:12.492Z,100.00
2022-12-28T23:54:39.091Z,100.00
2022-12-28T23:57:06.313Z,100.00
2022-12-28T23:59:32.724Z,100.00
